Time;durP1;ratioP1;P1;durP2;ratioP2;P2;SDS_P1;SDS_P2;PMS_P1;PMS_P2;Temp;Humidity;BMP_temperature;BMP_pressure;BME280_temperature;BME280_humidity;BME280_pressure;Samples;Min_cycle;Max_cycle;Signal;HPM_P1;HPM_P2
2022/03/11 00:00:25;;;;;;;17.30;10.88;;;;;;;10.86;33.82;101703.28;5023224;28;20057;-62
2022/03/11 00:02:50;;;;;;;16.85;10.57;;;;;;;10.77;34.08;101700.84;5029297;28;20520;-62
2022/03/11 00:05:16;;;;;;;15.95;10.82;;;;;;;10.74;34.42;101700.44;5030250;28;20468;-62
2022/03/11 00:07:42;;;;;;;16.48;10.70;;;;;;;10.75;34.31;101699.34;5028176;28;20112;-63
2022/03/11 00:10:08;;;;;;;18.92;11.07;;;;;;;10.76;34.35;101693.56;5030900;28;20141;-62
2022/03/11 00:12:36;;;;;;;17.90;11.35;;;;;;;10.65;34.58;101697.16;5029439;28;20041;-62
2022/03/11 00:15:01;;;;;;;18.20;11.23;;;;;;;10.59;34.43;101688.91;5030014;28;20083;-62
2022/03/11 00:17:27;;;;;;;15.73;11.02;;;;;;;10.63;34.56;101690.97;5030000;28;20080;-64
2022/03/11 00:19:52;;;;;;;17.38;11.52;;;;;;;10.65;34.22;101687.94;5030681;28;20068;-63
2022/03/11 00:22:17;;;;;;;20.52;11.00;;;;;;;10.61;34.31;101687.59;5029189;28;20120;-62
2022/03/11 00:24:43;;;;;;;16.05;11.07;;;;;;;10.59;34.55;101669.47;5029383;28;20026;-62
2022/03/11 00:27:08;;;;;;;18.38;11.48;;;;;;;10.56;34.38;101679.09;5029207;28;20440;-62
2022/03/11 00:29:33;;;;;;;17.55;11.52;;;;;;;10.50;34.66;101685.59;5029948;28;20026;-62
2022/03/11 00:31:59;;;;;;;17.10;11.60;;;;;;;10.53;34.58;101680.44;5029365;28;20044;-62
2022/03/11 00:34:24;;;;;;;19.13;11.60;;;;;;;10.52;34.83;101689.81;5029709;28;20112;-62
2022/03/11 00:36:49;;;;;;;18.77;11.73;;;;;;;10.46;35.03;101682.44;5029884;28;20032;-63
2022/03/11 00:39:15;;;;;;;21.08;12.23;;;;;;;10.46;35.23;101676.88;5024803;28;20057;-62
2022/03/11 00:41:40;;;;;;;19.02;11.75;;;;;;;10.45;34.85;101680.75;5026215;28;20049;-62
2022/03/11 00:44:05;;;;;;;19.13;11.95;;;;;;;10.44;34.99;101675.41;5032000;28;20030;-62
2022/03/11 00:46:31;;;;;;;18.25;11.75;;;;;;;10.39;34.97;101676.09;5029844;28;20500;-63
2022/03/11 00:48:56;;;;;;;20.20;11.90;;;;;;;10.34;35.00;101675.97;5030012;28;20036;-62
2022/03/11 00:51:21;;;;;;;21.33;12.52;;;;;;;10.40;34.81;101674.19;5028849;28;20028;-63
2022/03/11 00:53:47;;;;;;;20.00;12.23;;;;;;;10.39;34.78;101669.72;5029886;28;20999;-62
2022/03/11 00:56:12;;;;;;;19.92;12.02;;;;;;;10.34;35.23;101672.34;5030297;28;20040;-62
2022/03/11 00:58:37;;;;;;;18.42;12.82;;;;;;;10.34;35.14;101670.41;5025906;28;20037;-62
2022/03/11 01:01:03;;;;;;;20.58;11.85;;;;;;;10.28;35.17;101661.06;5012873;28;20638;-62
2022/03/11 01:03:28;;;;;;;18.40;12.68;;;;;;;10.30;34.75;101658.94;5010547;28;20026;-63
2022/03/11 01:05:53;;;;;;;18.98;12.15;;;;;;;10.26;35.16;101660.47;5015337;28;20030;-63
2022/03/11 01:08:19;;;;;;;18.27;12.00;;;;;;;10.24;35.16;101653.41;5029456;28;20061;-63
2022/03/11 01:10:44;;;;;;;20.05;12.25;;;;;;;10.20;35.02;101647.47;5029797;28;20038;-63
2022/03/11 01:13:09;;;;;;;16.05;11.45;;;;;;;10.21;35.41;101645.53;5032110;28;20029;-63
2022/03/11 01:15:35;;;;;;;20.73;13.02;;;;;;;10.20;34.71;101646.63;5032893;28;20449;-63
2022/03/11 01:18:00;;;;;;;18.92;11.98;;;;;;;10.16;35.09;101645.41;5024651;28;20034;-63
2022/03/11 01:20:25;;;;;;;18.00;11.73;;;;;;;10.16;35.42;101639.84;5033555;28;20124;-63
2022/03/11 01:22:51;;;;;;;21.50;12.18;;;;;;;10.12;35.25;101636.69;5033121;28;20028;-63
2022/03/11 01:25:16;;;;;;;20.33;12.43;;;;;;;10.15;35.44;101627.06;5033414;28;20029;-63
2022/03/11 01:27:41;;;;;;;17.63;11.98;;;;;;;10.16;35.37;101628.75;5036042;28;20025;-62
2022/03/11 01:30:16;;;;;;;17.40;12.45;;;;;;;10.14;35.00;101629.00;5035630;28;20414;-63
2022/03/11 01:32:43;;;;;;;16.15;11.65;;;;;;;10.05;35.28;101617.34;5032221;28;20428;-63
2022/03/11 01:35:09;;;;;;;17.65;12.13;;;;;;;10.04;34.99;101620.34;5032538;28;20063;-63
2022/03/11 01:37:35;;;;;;;16.52;12.18;;;;;;;10.00;35.59;101616.34;5033099;28;20029;-63
2022/03/11 01:40:01;;;;;;;18.23;12.02;;;;;;;9.99;35.15;101609.97;5032980;28;20069;-63
2022/03/11 01:42:26;;;;;;;16.98;12.70;;;;;;;10.02;35.53;101608.63;5032019;28;20064;-63
2022/03/11 01:44:54;;;;;;;16.02;11.48;;;;;;;9.98;35.23;101604.63;5032928;28;20033;-63
2022/03/11 01:47:20;;;;;;;18.25;12.23;;;;;;;9.92;35.63;101602.78;5032593;28;20025;-63
2022/03/11 01:49:45;;;;;;;17.27;11.20;;;;;;;9.93;35.69;101593.38;5019507;28;20056;-63
2022/03/11 01:52:12;;;;;;;17.77;11.65;;;;;;;9.89;35.65;101595.78;5036731;28;20530;-63
2022/03/11 01:54:40;;;;;;;19.20;12.77;;;;;;;9.76;35.86;101590.38;5032804;28;20033;-63
2022/03/11 01:57:06;;;;;;;16.20;12.07;;;;;;;9.85;35.23;101586.22;5043551;28;20053;-63
2022/03/11 01:59:31;;;;;;;17.80;11.77;;;;;;;9.82;35.50;101583.91;5052902;28;20373;-63
2022/03/11 02:01:56;;;;;;;17.02;11.95;;;;;;;9.84;35.49;101581.75;5033545;28;20041;-63
2022/03/11 02:04:21;;;;;;;17.20;12.20;;;;;;;9.78;35.80;101579.91;5027378;28;20045;-63
2022/03/11 02:06:49;;;;;;;20.95;12.50;;;;;;;9.83;35.16;101580.06;5036072;28;20037;-63
2022/03/11 02:09:14;;;;;;;17.75;12.50;;;;;;;9.82;35.53;101573.69;5034971;28;20472;-63
2022/03/11 02:11:39;;;;;;;17.52;12.05;;;;;;;9.77;35.27;101570.72;5034858;28;20056;-63
2022/03/11 02:14:05;;;;;;;20.10;11.60;;;;;;;9.79;35.35;101563.03;5032595;28;20045;-62
2022/03/11 02:16:32;;;;;;;22.83;12.55;;;;;;;9.72;35.69;101561.44;5032644;28;20033;-63
2022/03/11 02:18:59;;;;;;;16.38;11.98;;;;;;;9.59;35.96;101554.94;5029751;28;20036;-63
2022/03/11 02:21:27;;;;;;;19.55;11.77;;;;;;;9.61;35.80;101554.72;5032519;28;20470;-63
2022/03/11 02:23:54;;;;;;;18.15;12.35;;;;;;;9.53;35.68;101550.31;5032362;28;20117;-63
2022/03/11 02:26:22;;;;;;;17.00;11.43;;;;;;;9.62;35.78;101550.00;5040225;28;20025;-62
2022/03/11 02:28:50;;;;;;;18.80;12.38;;;;;;;9.61;35.65;101538.09;5045821;28;20060;-63
2022/03/11 02:31:16;;;;;;;20.15;12.57;;;;;;;9.55;35.73;101539.88;5031606;28;20083;-63
2022/03/11 02:33:41;;;;;;;18.25;12.38;;;;;;;9.55;36.37;101531.56;5026424;28;20021;-63
2022/03/11 02:36:07;;;;;;;19.60;11.70;;;;;;;9.59;35.95;101531.94;5032265;28;20037;-63
2022/03/11 02:38:33;;;;;;;19.48;11.80;;;;;;;9.53;35.83;101530.06;5030916;28;20025;-63
2022/03/11 02:40:59;;;;;;;19.95;12.52;;;;;;;9.56;35.88;101529.63;5012647;28;20030;-63
2022/03/11 02:43:24;;;;;;;15.55;11.48;;;;;;;9.53;36.34;101530.91;5026109;28;20124;-63
2022/03/11 02:45:50;;;;;;;17.00;11.57;;;;;;;9.53;35.98;101519.81;5031478;28;20116;-63
2022/03/11 02:48:15;;;;;;;20.42;12.43;;;;;;;9.53;35.91;101524.53;5032309;28;20022;-63
2022/03/11 02:50:44;;;;;;;17.77;11.82;;;;;;;9.49;35.58;101523.28;5025283;28;20042;-63
2022/03/11 02:53:10;;;;;;;17.83;12.05;;;;;;;9.45;35.87;101517.38;5034246;28;20385;-63
2022/03/11 02:55:35;;;;;;;17.10;11.80;;;;;;;9.45;36.14;101517.38;5031982;28;20029;-63
2022/03/11 02:58:01;;;;;;;20.45;11.85;;;;;;;9.43;36.10;101522.31;5034191;28;20049;-63
2022/03/11 03:00:29;;;;;;;16.23;11.70;;;;;;;9.39;35.80;101512.72;5030389;28;20061;-63
2022/03/11 03:02:55;;;;;;;16.60;11.93;;;;;;;9.41;35.81;101516.13;5034897;28;20029;-63
2022/03/11 03:05:20;;;;;;;15.25;11.27;;;;;;;9.40;35.86;101514.44;5031911;28;20068;-63
2022/03/11 03:07:45;;;;;;;15.70;11.80;;;;;;;9.47;35.90;101517.13;5023236;28;20090;-63
2022/03/11 03:10:11;;;;;;;16.73;11.65;;;;;;;9.37;35.78;101509.34;5029503;28;20104;-63
2022/03/11 03:12:36;;;;;;;16.60;12.27;;;;;;;9.40;35.44;101513.59;5039715;28;20039;-63
2022/03/11 03:15:02;;;;;;;17.90;11.52;;;;;;;9.34;36.09;101507.03;5033345;28;20029;-63
2022/03/11 03:17:28;;;;;;;17.55;11.82;;;;;;;9.35;35.72;101505.94;5024366;28;20041;-63
2022/03/11 03:19:54;;;;;;;16.23;11.55;;;;;;;9.36;35.83;101506.81;5012484;28;20176;-63
2022/03/11 03:22:19;;;;;;;19.00;11.98;;;;;;;9.26;35.44;101512.88;5011098;28;20529;-63
2022/03/11 03:24:44;;;;;;;18.00;12.35;;;;;;;9.29;35.66;101510.50;5026326;28;20031;-63
2022/03/11 03:27:10;;;;;;;17.52;11.57;;;;;;;9.22;35.71;101511.63;5031242;28;20032;-63
2022/03/11 03:29:35;;;;;;;15.68;10.98;;;;;;;9.22;35.78;101506.94;5030358;28;20025;-63
2022/03/11 03:32:01;;;;;;;21.90;12.23;;;;;;;9.22;36.39;101500.56;5030726;28;20428;-63
2022/03/11 03:34:35;;;;;;;16.95;12.35;;;;;;;9.24;35.71;101506.72;5030538;28;20032;-63
2022/03/11 03:37:04;;;;;;;19.38;11.68;;;;;;;9.19;35.68;101501.00;5033397;28;20026;-63
2022/03/11 03:39:29;;;;;;;17.63;11.20;;;;;;;9.22;35.32;101500.56;5030925;28;20048;-63
2022/03/11 03:41:56;;;;;;;17.20;11.50;;;;;;;9.23;36.14;101503.09;5030008;28;20473;-63
2022/03/11 03:44:22;;;;;;;19.88;11.15;;;;;;;9.19;35.68;101495.47;5031419;28;20127;-63
2022/03/11 03:46:47;;;;;;;16.17;11.65;;;;;;;9.21;35.67;101501.63;5029174;28;20029;-63
2022/03/11 03:49:14;;;;;;;16.73;11.32;;;;;;;9.21;35.52;101499.72;5018867;28;20057;-62
2022/03/11 03:51:40;;;;;;;16.05;11.32;;;;;;;9.22;35.73;101500.56;5042503;28;20028;-63
2022/03/11 03:54:06;;;;;;;16.10;11.77;;;;;;;9.17;35.58;101492.09;5030026;28;20507;-63
2022/03/11 03:56:33;;;;;;;16.98;11.48;;;;;;;9.12;35.89;101495.56;5032763;28;20050;-63
2022/03/11 03:59:04;;;;;;;17.23;11.70;;;;;;;9.09;36.43;101496.84;5030545;28;20081;-63
2022/03/11 04:01:30;;;;;;;16.83;10.98;;;;;;;9.07;35.99;101493.44;5031177;28;20040;-63
2022/03/11 04:03:55;;;;;;;17.08;11.15;;;;;;;9.00;36.10;101498.22;5031298;28;20431;-63
2022/03/11 04:06:20;;;;;;;13.43;10.68;;;;;;;8.99;36.39;101490.97;5034073;28;20428;-63
2022/03/11 04:08:45;;;;;;;15.73;11.43;;;;;;;9.00;35.96;101486.25;5029989;28;20032;-63
2022/03/11 04:11:11;;;;;;;16.30;11.88;;;;;;;9.00;35.96;101491.81;5032870;28;20029;-63
2022/03/11 04:13:36;;;;;;;17.77;11.52;;;;;;;8.99;35.83;101479.88;5033830;28;20021;-63
2022/03/11 04:16:01;;;;;;;15.68;10.73;;;;;;;8.96;36.44;101491.44;5029056;28;20033;-63
2022/03/11 04:18:26;;;;;;;16.10;11.63;;;;;;;8.99;36.06;101484.59;5029128;28;20030;-63
2022/03/11 04:20:52;;;;;;;14.18;10.95;;;;;;;8.96;35.94;101485.91;5029855;28;20370;-63
2022/03/11 04:23:17;;;;;;;15.80;11.23;;;;;;;8.92;36.10;101487.44;5030441;28;20037;-63
2022/03/11 04:25:42;;;;;;;18.40;11.43;;;;;;;8.89;36.35;101481.50;5023482;28;20395;-63
2022/03/11 04:28:07;;;;;;;15.13;10.88;;;;;;;8.88;35.87;101477.00;5030243;28;20033;-63
2022/03/11 04:30:33;;;;;;;14.68;11.10;;;;;;;8.85;35.91;101476.41;5030552;28;20034;-63
2022/03/11 04:32:58;;;;;;;17.13;11.45;;;;;;;8.89;36.30;101468.50;5030114;28;20595;-63
2022/03/11 04:35:23;;;;;;;17.52;11.00;;;;;;;8.85;35.42;101467.25;5029155;28;20163;-63
2022/03/11 04:37:48;;;;;;;13.90;10.80;;;;;;;8.83;35.56;101458.31;5027753;28;20464;-63
2022/03/11 04:40:14;;;;;;;15.05;10.75;;;;;;;8.82;35.64;101464.94;5044199;28;20037;-63
2022/03/11 04:42:39;;;;;;;16.70;10.90;;;;;;;8.85;35.38;101467.25;5030931;28;20113;-63
2022/03/11 04:45:05;;;;;;;17.42;11.07;;;;;;;8.85;35.32;101473.63;5028273;28;20032;-62
2022/03/11 04:47:31;;;;;;;14.98;10.95;;;;;;;8.80;36.10;101467.94;5026694;28;20026;-63
2022/03/11 04:49:56;;;;;;;13.50;10.05;;;;;;;8.80;35.91;101473.47;5035251;28;20028;-63
2022/03/11 04:52:21;;;;;;;14.50;10.02;;;;;;;8.78;35.98;101469.22;5033257;28;20072;-63
2022/03/11 04:54:47;;;;;;;16.95;10.57;;;;;;;8.73;36.14;101471.84;5034102;28;20072;-63
2022/03/11 04:57:12;;;;;;;18.98;10.45;;;;;;;8.73;36.07;101466.31;5032463;28;20041;-63
2022/03/11 04:59:38;;;;;;;14.30;10.30;;;;;;;8.77;36.05;101468.38;5032742;28;20037;-63
2022/03/11 05:02:03;;;;;;;19.08;11.13;;;;;;;8.73;35.50;101467.16;5034562;28;20025;-63
2022/03/11 05:04:28;;;;;;;16.73;10.38;;;;;;;8.78;36.04;101470.06;5027014;28;20030;-62
2022/03/11 05:06:54;;;;;;;15.93;10.20;;;;;;;8.76;35.63;101469.47;5033289;28;20039;-63
2022/03/11 05:09:19;;;;;;;15.10;9.70;;;;;;;8.67;35.54;101472.72;5034195;28;20033;-63
2022/03/11 05:11:44;;;;;;;16.20;10.43;;;;;;;8.69;35.56;101462.31;5033883;28;20045;-63
2022/03/11 05:14:12;;;;;;;13.82;10.30;;;;;;;8.69;36.29;101454.84;5033279;28;20063;-63
2022/03/11 05:16:38;;;;;;;17.35;10.75;;;;;;;8.65;35.63;101459.13;5034352;28;20437;-63
2022/03/11 05:19:03;;;;;;;16.13;11.48;;;;;;;8.65;35.77;101452.75;5033720;28;20057;-63
2022/03/11 05:21:28;;;;;;;15.05;10.48;;;;;;;8.66;35.79;101452.50;5030782;28;20432;-63
2022/03/11 05:23:54;;;;;;;15.98;10.05;;;;;;;8.66;35.19;101454.44;5020898;28;20053;-63
2022/03/11 05:26:25;;;;;;;16.80;10.10;;;;;;;8.67;35.81;101456.13;5033433;28;20029;-63
2022/03/11 05:28:55;;;;;;;16.40;9.73;;;;;;;8.66;35.92;101457.22;5033138;28;20025;-63
2022/03/11 05:31:21;;;;;;;14.48;10.00;;;;;;;8.65;35.77;101448.06;5034118;28;20076;-63
2022/03/11 05:33:50;;;;;;;12.75;9.23;;;;;;;8.69;36.29;101454.00;5034225;28;20796;-63
2022/03/11 05:36:16;;;;;;;11.13;8.90;;;;;;;8.71;35.38;101452.69;5032540;28;20079;-63
2022/03/11 05:38:41;;;;;;;14.35;10.23;;;;;;;8.67;35.79;101456.13;5033482;28;20113;-63
2022/03/11 05:41:07;;;;;;;17.58;9.35;;;;;;;8.67;36.14;101447.81;5033141;28;20100;-62
2022/03/11 05:43:32;;;;;;;14.55;10.10;;;;;;;8.67;35.87;101456.13;5033449;28;20052;-63
2022/03/11 05:45:57;;;;;;;13.00;9.27;;;;;;;8.64;35.72;101454.66;5033374;28;20510;-63
2022/03/11 05:48:23;;;;;;;14.60;10.02;;;;;;;8.64;35.44;101439.97;5032804;28;20025;-63
2022/03/11 05:50:48;;;;;;;13.52;10.38;;;;;;;8.62;36.43;101450.44;5033553;28;20460;-63
2022/03/11 05:53:13;;;;;;;15.65;10.15;;;;;;;8.64;36.41;101451.88;5028899;28;20080;-63
2022/03/11 05:55:39;;;;;;;13.02;9.43;;;;;;;8.64;36.50;101448.28;5033022;28;20428;-63
2022/03/11 05:58:04;;;;;;;14.15;10.75;;;;;;;8.66;36.71;101451.66;5033472;28;20041;-63
2022/03/11 06:00:32;;;;;;;15.32;10.10;;;;;;;8.65;36.21;101444.44;5031613;28;20033;-62
2022/03/11 06:02:57;;;;;;;13.40;9.82;;;;;;;8.63;36.32;101438.28;5032343;28;20079;-63
2022/03/11 06:05:23;;;;;;;15.15;9.82;;;;;;;8.58;36.79;101442.56;5032605;28;20057;-63
2022/03/11 06:07:48;;;;;;;12.65;9.52;;;;;;;8.60;36.05;101440.41;5032660;28;20083;-63
2022/03/11 06:10:13;;;;;;;14.45;9.93;;;;;;;8.59;36.64;101444.25;5032388;28;20039;-64
2022/03/11 06:12:39;;;;;;;14.88;10.38;;;;;;;8.60;36.52;101439.56;5030558;28;20030;-63
2022/03/11 06:15:11;;;;;;;15.02;10.38;;;;;;;8.58;36.72;101441.72;5031189;28;20484;-63
2022/03/11 06:17:37;;;;;;;14.93;9.88;;;;;;;8.54;36.66;101443.25;5026298;28;20038;-63
2022/03/11 06:20:04;;;;;;;16.90;10.68;;;;;;;8.55;36.69;101436.63;5032127;28;20037;-63
2022/03/11 06:22:30;;;;;;;15.68;10.38;;;;;;;8.50;36.57;101448.38;5032298;28;20057;-63
2022/03/11 06:24:56;;;;;;;15.80;10.13;;;;;;;8.48;37.59;101449.66;5031147;28;20059;-62
2022/03/11 06:27:24;;;;;;;15.48;9.50;;;;;;;8.47;37.22;101448.84;5030919;28;20029;-62
2022/03/11 06:29:49;;;;;;;13.27;9.65;;;;;;;8.46;37.41;101444.38;5029625;28;20030;-62
2022/03/11 06:32:15;;;;;;;15.32;10.02;;;;;;;8.49;36.62;101443.94;5026268;28;20029;-61
2022/03/11 06:34:40;;;;;;;16.27;10.27;;;;;;;8.42;37.68;101445.91;5031930;28;20026;-61
2022/03/11 06:37:05;;;;;;;14.50;10.38;;;;;;;8.51;37.53;101449.22;5031526;28;20037;-60
2022/03/11 06:39:31;;;;;;;16.40;10.88;;;;;;;8.46;37.37;101441.63;5018446;28;20034;-61
2022/03/11 06:41:56;;;;;;;14.57;10.77;;;;;;;8.49;37.16;101445.81;5020293;28;20123;-61
2022/03/11 06:44:21;;;;;;;15.50;10.40;;;;;;;8.48;37.72;101444.97;5028009;28;20048;-62
2022/03/11 06:46:47;;;;;;;14.57;10.73;;;;;;;8.51;37.77;101450.06;5028936;28;20053;-62
2022/03/11 06:49:12;;;;;;;21.65;10.90;;;;;;;8.53;37.61;101449.88;5029315;28;20029;-61
2022/03/11 06:51:38;;;;;;;12.20;9.85;;;;;;;8.53;37.78;101447.09;5027332;28;20041;-62
2022/03/11 06:54:06;;;;;;;14.20;9.98;;;;;;;8.48;37.80;101444.97;5028782;28;20029;-61
2022/03/11 06:56:32;;;;;;;14.07;10.60;;;;;;;8.49;37.84;101452.25;5027479;28;20037;-61
2022/03/11 06:58:57;;;;;;;16.58;10.30;;;;;;;8.52;38.10;101445.38;5028850;28;20037;-62
2022/03/11 07:01:24;;;;;;;15.07;10.80;;;;;;;8.53;37.56;101442.41;5029636;28;20042;-61
2022/03/11 07:03:52;;;;;;;16.65;10.32;;;;;;;8.56;37.84;101438.31;5031368;28;20092;-61
2022/03/11 07:06:17;;;;;;;14.15;10.27;;;;;;;8.55;38.49;101444.94;5029667;28;20021;-62
2022/03/11 07:08:43;;;;;;;17.73;10.82;;;;;;;8.54;38.07;101435.78;5029184;28;20064;-61
2022/03/11 07:11:08;;;;;;;15.57;10.30;;;;;;;8.56;38.65;101433.63;5029149;28;20113;-61
2022/03/11 07:13:34;;;;;;;16.75;10.63;;;;;;;8.55;38.05;101426.41;5028398;28;20386;-61
2022/03/11 07:15:59;;;;;;;16.92;10.68;;;;;;;8.61;37.95;101427.44;5029440;28;20041;-64
2022/03/11 07:18:24;;;;;;;16.50;10.65;;;;;;;8.59;38.11;101426.81;5030301;28;20093;-62
2022/03/11 07:20:50;;;;;;;16.05;10.70;;;;;;;8.58;37.91;101431.50;5028607;28;20021;-63
2022/03/11 07:23:15;;;;;;;17.88;11.20;;;;;;;8.59;37.85;101427.66;5031332;28;20464;-64
2022/03/11 07:25:40;;;;;;;15.18;10.55;;;;;;;8.56;38.63;101427.25;5030525;28;20025;-64
2022/03/11 07:28:06;;;;;;;17.60;10.98;;;;;;;8.57;38.28;101438.13;5028988;28;20025;-63
2022/03/11 07:30:33;;;;;;;16.13;10.80;;;;;;;8.60;37.87;101432.09;5029397;28;20031;-64
2022/03/11 07:33:07;;;;;;;17.80;10.60;;;;;;;8.64;38.34;101429.75;5029271;28;20524;-63
2022/03/11 07:35:33;;;;;;;17.42;11.65;;;;;;;8.65;38.77;101433.38;5027183;28;20080;-63
2022/03/11 07:37:58;;;;;;;17.67;11.18;;;;;;;8.68;38.45;101432.91;5033264;28;20037;-63
2022/03/11 07:40:24;;;;;;;14.88;11.05;;;;;;;8.73;39.07;101441.41;5027151;28;20469;-63
2022/03/11 07:42:49;;;;;;;17.08;11.30;;;;;;;8.74;38.57;101429.25;5023384;28;20112;-62
2022/03/11 07:45:15;;;;;;;16.98;11.05;;;;;;;8.78;38.61;101428.56;5029483;28;20064;-62
2022/03/11 07:47:44;;;;;;;22.75;12.10;;;;;;;8.83;38.17;101431.47;5027314;28;20025;-63
2022/03/11 07:50:12;;;;;;;17.98;12.25;;;;;;;8.87;37.73;101423.56;5022747;28;20104;-63
2022/03/11 07:52:38;;;;;;;17.50;11.05;;;;;;;8.93;38.39;101430.13;5024415;28;20044;-63
2022/03/11 07:55:09;;;;;;;20.08;11.55;;;;;;;8.95;37.70;101423.28;5030330;28;20038;-62
2022/03/11 07:57:36;;;;;;;16.65;11.50;;;;;;;8.97;37.74;101426.69;5030608;28;20087;-63
2022/03/11 08:00:08;;;;;;;15.20;11.43;;;;;;;9.06;37.96;101424.44;5030040;28;20448;-62
2022/03/11 08:02:34;;;;;;;16.42;11.43;;;;;;;9.17;38.45;101433.94;5030002;28;20350;-63
2022/03/11 08:04:59;;;;;;;15.70;11.88;;;;;;;9.16;37.92;101415.63;5029616;28;20037;-63
2022/03/11 08:07:24;;;;;;;19.83;12.15;;;;;;;9.26;37.75;101411.22;5030253;28;20041;-63
2022/03/11 08:09:50;;;;;;;19.58;11.32;;;;;;;9.35;37.85;101408.97;5030125;28;20029;-63
2022/03/11 08:12:18;;;;;;;19.67;11.60;;;;;;;9.44;37.92;101410.38;5030267;28;20044;-63
2022/03/11 08:14:47;;;;;;;20.17;11.98;;;;;;;9.59;37.41;101394.19;5025178;28;20454;-63
2022/03/11 08:17:13;;;;;;;19.00;11.70;;;;;;;9.67;37.42;101397.72;5010150;28;20050;-63
2022/03/11 08:19:38;;;;;;;16.77;12.13;;;;;;;9.74;37.28;101398.47;5011960;28;20512;-63
2022/03/11 08:22:03;;;;;;;19.73;11.38;;;;;;;9.85;37.38;101400.44;5010023;28;20030;-63
2022/03/11 08:24:29;;;;;;;18.88;11.65;;;;;;;9.99;37.14;101410.28;5024184;28;20035;-63
2022/03/11 08:26:54;;;;;;;20.55;11.90;;;;;;;10.11;37.01;101409.47;5029808;28;20025;-63
2022/03/11 08:29:20;;;;;;;20.65;12.70;;;;;;;10.24;36.74;101395.38;5029874;28;20041;-63
2022/03/11 08:31:49;;;;;;;20.60;12.43;;;;;;;10.34;36.61;101408.72;5029999;28;20025;-62
2022/03/11 08:34:14;;;;;;;21.58;12.45;;;;;;;10.45;36.31;101405.09;5030127;28;20079;-62
2022/03/11 08:36:40;;;;;;;20.05;12.00;;;;;;;10.54;36.44;101404.53;5029986;28;20033;-62
2022/03/11 08:39:09;;;;;;;18.00;12.48;;;;;;;10.65;36.49;101397.31;5029534;28;20033;-62
2022/03/11 08:41:34;;;;;;;21.00;12.55;;;;;;;10.75;36.08;101391.16;5030516;28;20053;-62
2022/03/11 08:44:00;;;;;;;17.58;12.38;;;;;;;10.77;36.08;101397.31;5026191;28;20061;-63
2022/03/11 08:46:26;;;;;;;18.65;12.55;;;;;;;10.84;36.11;101398.00;5029992;28;20044;-62
2022/03/11 08:48:52;;;;;;;22.40;12.68;;;;;;;10.87;36.18;101391.97;5029813;28;20033;-62
2022/03/11 08:51:17;;;;;;;17.55;12.63;;;;;;;10.96;35.84;101390.53;5029651;28;20539;-62
2022/03/11 08:53:43;;;;;;;16.35;12.55;;;;;;;11.08;35.68;101387.72;5029869;28;20116;-62
2022/03/11 08:56:08;;;;;;;24.85;13.35;;;;;;;11.16;36.08;101395.72;5029203;28;20038;-62
2022/03/11 08:58:33;;;;;;;17.88;12.40;;;;;;;11.23;35.72;101388.06;5029135;28;20042;-62
2022/03/11 09:01:01;;;;;;;18.38;13.05;;;;;;;11.35;36.13;101379.72;5030143;28;20026;-62
2022/03/11 09:03:27;;;;;;;19.33;12.63;;;;;;;11.45;36.08;101374.38;5029930;28;20037;-62
2022/03/11 09:05:52;;;;;;;21.85;12.52;;;;;;;11.51;35.76;101381.75;5029190;28;20028;-62
2022/03/11 09:08:21;;;;;;;19.05;12.25;;;;;;;11.65;35.54;101378.66;5024010;28;20030;-62
2022/03/11 09:10:46;;;;;;;16.77;12.60;;;;;;;11.78;35.83;101379.19;5013695;28;20428;-61
2022/03/11 09:13:12;;;;;;;19.00;13.10;;;;;;;11.88;35.62;101374.97;5025148;28;20025;-62
2022/03/11 09:15:37;;;;;;;19.88;13.43;;;;;;;11.97;35.55;101370.69;5025766;28;20087;-63
2022/03/11 09:18:02;;;;;;;18.55;13.27;;;;;;;12.07;35.42;101370.06;5026807;28;20124;-60
2022/03/11 09:20:29;;;;;;;18.38;12.82;;;;;;;12.11;35.05;101368.44;5023348;28;20034;-61
2022/03/11 09:22:57;;;;;;;20.52;13.07;;;;;;;12.26;35.31;101369.56;5022482;28;20075;-61
2022/03/11 09:25:22;;;;;;;21.52;13.60;;;;;;;12.22;34.85;101353.59;5019636;28;20830;-62
2022/03/11 09:27:52;;;;;;;23.15;13.38;;;;;;;12.28;35.02;101350.66;5027563;28;20029;-62
2022/03/11 09:30:18;;;;;;;10.20;7.00;;;;;;;12.86;40.87;101356.88;5020485;28;20054;-61
2022/03/11 09:32:43;;;;;;;17.27;11.65;;;;;;;13.02;38.44;101371.88;5025004;28;20021;-62
2022/03/11 09:35:09;;;;;;;24.42;13.80;;;;;;;13.07;34.71;101359.94;5017014;28;20424;-62
2022/03/11 09:37:34;;;;;;;21.60;12.95;;;;;;;13.03;34.41;101352.09;5044032;28;20411;-61
2022/03/11 09:40:03;;;;;;;26.58;13.82;;;;;;;12.87;33.97;101352.97;5024527;28;20060;-61
2022/03/11 09:42:31;;;;;;;19.65;12.07;;;;;;;12.75;34.72;101346.66;5030764;28;20095;-62
2022/03/11 09:44:57;;;;;;;19.33;13.88;;;;;;;12.75;34.37;101339.16;5013305;28;20030;-62
2022/03/11 09:47:22;;;;;;;17.20;12.70;;;;;;;12.73;34.50;101343.28;5028676;28;20036;-62
2022/03/11 09:49:51;;;;;;;17.13;12.57;;;;;;;12.73;34.52;101332.13;5020230;28;20033;-61
2022/03/11 09:52:19;;;;;;;20.52;13.00;;;;;;;12.86;35.10;101325.38;5031972;28;20433;-62
2022/03/11 09:54:45;;;;;;;20.27;13.32;;;;;;;12.90;34.81;101321.81;5023703;28;20033;-63
2022/03/11 09:57:12;;;;;;;19.05;12.65;;;;;;;13.03;34.84;101315.03;5023797;28;20785;-62
2022/03/11 09:59:37;;;;;;;21.38;14.00;;;;;;;13.03;34.55;101310.28;5024059;28;20033;-62
2022/03/11 10:02:11;;;;;;;16.50;12.55;;;;;;;13.14;34.81;101310.44;5023945;28;20036;-61
2022/03/11 10:04:39;;;;;;;22.83;13.05;;;;;;;13.21;34.85;101311.94;5025627;28;20500;-62
2022/03/11 10:07:19;;;;;;;17.35;12.38;;;;;;;13.23;34.90;101306.94;5018911;28;20018;-61
2022/03/11 10:09:45;;;;;;;21.48;12.63;;;;;;;13.27;34.74;101310.06;5026960;28;20033;-62
2022/03/11 10:12:19;;;;;;;17.33;12.57;;;;;;;13.30;35.29;101309.56;5020769;28;20643;-61
2022/03/11 10:14:54;;;;;;;16.30;12.15;;;;;;;13.47;35.12;101309.47;5026476;28;20108;-62
2022/03/11 10:17:20;;;;;;;18.50;13.23;;;;;;;13.55;34.75;101299.78;5020531;28;20048;-61
2022/03/11 10:20:00;;;;;;;21.65;12.55;;;;;;;13.51;34.83;101307.84;5028781;28;20424;-61
2022/03/11 10:22:26;;;;;;;17.42;12.02;;;;;;;13.53;34.74;101296.44;5016380;28;20060;-61
2022/03/11 10:24:51;;;;;;;21.30;13.50;;;;;;;13.62;34.87;101286.47;5024473;28;20175;-61
2022/03/11 10:27:17;;;;;;;17.98;11.52;;;;;;;13.69;34.66;101290.75;5024538;28;20045;-60
2022/03/11 10:29:45;;;;;;;19.20;12.60;;;;;;;13.71;34.60;101285.72;5022208;28;20500;-61
2022/03/11 10:32:10;;;;;;;18.20;12.70;;;;;;;13.79;34.44;101284.41;5022064;28;20029;-61
2022/03/11 10:34:36;;;;;;;24.00;13.05;;;;;;;13.87;34.41;101283.09;5015677;28;20033;-62
2022/03/11 10:37:09;;;;;;;20.40;12.95;;;;;;;13.95;34.86;101277.03;5021485;28;20022;-61
2022/03/11 10:39:39;;;;;;;18.70;12.93;;;;;;;14.00;34.74;101280.72;5026383;28;20040;-61
2022/03/11 10:42:25;;;;;;;19.77;13.20;;;;;;;14.10;34.89;101267.94;5023337;28;20029;-61
2022/03/11 10:45:11;;;;;;;18.10;12.25;;;;;;;14.18;34.36;101268.28;5027294;28;20523;-61
2022/03/11 10:47:38;;;;;;;21.48;12.98;;;;;;;14.23;34.43;101262.78;5027046;28;20113;-61
2022/03/11 10:50:06;;;;;;;20.38;12.48;;;;;;;14.27;34.66;101263.06;5023304;28;20602;-61
2022/03/11 10:52:47;;;;;;;16.98;12.00;;;;;;;14.30;34.67;101259.72;5026597;28;20109;-61
2022/03/11 10:55:26;;;;;;;16.20;12.48;;;;;;;14.31;34.63;101253.06;5030736;28;20029;-63
2022/03/11 10:57:56;;;;;;;16.17;11.95;;;;;;;14.34;34.54;101252.50;5028872;28;20085;-61
2022/03/11 11:00:28;;;;;;;20.70;12.77;;;;;;;14.48;34.79;101248.13;5025336;28;20132;-61
2022/03/11 11:02:56;;;;;;;17.90;12.20;;;;;;;14.53;35.07;101249.31;5026792;28;20497;-62
2022/03/11 11:05:22;;;;;;;19.23;12.60;;;;;;;14.58;34.55;101246.53;5014862;28;20155;-62
2022/03/11 11:07:48;;;;;;;19.90;12.57;;;;;;;14.55;34.30;101245.13;5026470;28;20041;-62
2022/03/11 11:10:16;;;;;;;19.38;13.02;;;;;;;14.49;34.14;101240.63;5025341;28;20037;-62